sensor_id;sensor_type;location;lat;lon;timestamp;pressure;altitude;pressure_sealevel;temperature;humidity
74524;BME280;63074;44.696;10.358;2022-08-30T00:02:22;100064.59;;;22.56;100.00
74524;BME280;63074;44.696;10.358;2022-08-30T00:04:48;100069.28;;;22.33;100.00
74524;BME280;63074;44.696;10.358;2022-08-30T00:07:14;100065.69;;;22.46;100.00
74524;BME280;63074;44.696;10.358;2022-08-30T00:09:39;100063.13;;;22.50;100.00
74524;BME280;63074;44.696;10.358;2022-08-30T00:12:05;100058.41;;;22.42;100.00
74524;BME280;63074;44.696;10.358;2022-08-30T00:14:30;100067.63;;;22.54;100.00
74524;BME280;63074;44.696;10.358;2022-08-30T00:16:56;100057.78;;;22.45;100.00
74524;BME280;63074;44.696;10.358;2022-08-30T00:19:21;100058.84;;;22.35;100.00
74524;BME280;63074;44.696;10.358;2022-08-30T00:21:46;100058.28;;;22.24;100.00
74524;BME280;63074;44.696;10.358;2022-08-30T00:24:12;100057.28;;;22.43;100.00
74524;BME280;63074;44.696;10.358;2022-08-30T00:26:37;100053.63;;;22.25;100.00
74524;BME280;63074;44.696;10.358;2022-08-30T00:29:02;100052.97;;;22.19;100.00
74524;BME280;63074;44.696;10.358;2022-08-30T00:31:28;100051.88;;;22.29;100.00
74524;BME280;63074;44.696;10.358;2022-08-30T00:33:54;100054.75;;;22.24;100.00
74524;BME280;63074;44.696;10.358;2022-08-30T00:36:19;100048.88;;;22.39;100.00
74524;BME280;63074;44.696;10.358;2022-08-30T00:38:45;100043.84;;;22.33;100.00
74524;BME280;63074;44.696;10.358;2022-08-30T00:41:10;100047.19;;;22.21;100.00
74524;BME280;63074;44.696;10.358;2022-08-30T00:43:36;100048.25;;;22.42;100.00
74524;BME280;63074;44.696;10.358;2022-08-30T00:46:01;100049.25;;;22.24;100.00
74524;BME280;63074;44.696;10.358;2022-08-30T00:48:30;100044.78;;;22.28;100.00
74524;BME280;63074;44.696;10.358;2022-08-30T00:51:01;100039.84;;;22.08;100.00
74524;BME280;63074;44.696;10.358;2022-08-30T00:53:33;100049.97;;;22.07;100.00
74524;BME280;63074;44.696;10.358;2022-08-30T00:56:01;100053.41;;;22.13;100.00
74524;BME280;63074;44.696;10.358;2022-08-30T00:58:31;100056.63;;;22.15;100.00
74524;BME280;63074;44.696;10.358;2022-08-30T01:00:59;100053.94;;;22.01;100.00
74524;BME280;63074;44.696;10.358;2022-08-30T01:03:26;100052.06;;;21.88;100.00
74524;BME280;63074;44.696;10.358;2022-08-30T01:05:52;100046.94;;;21.95;100.00
74524;BME280;63074;44.696;10.358;2022-08-30T01:08:19;100036.47;;;22.11;100.00
74524;BME280;63074;44.696;10.358;2022-08-30T01:10:47;100042.97;;;22.23;100.00
74524;BME280;63074;44.696;10.358;2022-08-30T01:13:13;100041.13;;;22.33;100.00
74524;BME280;63074;44.696;10.358;2022-08-30T01:15:40;100038.13;;;21.98;100.00
74524;BME280;63074;44.696;10.358;2022-08-30T01:18:07;100049.34;;;21.88;100.00
74524;BME280;63074;44.696;10.358;2022-08-30T01:20:38;100046.53;;;21.79;100.00
74524;BME280;63074;44.696;10.358;2022-08-30T01:23:11;100041.03;;;21.79;100.00
74524;BME280;63074;44.696;10.358;2022-08-30T01:25:39;100052.69;;;21.85;100.00
74524;BME280;63074;44.696;10.358;2022-08-30T01:28:09;100051.59;;;21.72;100.00
74524;BME280;63074;44.696;10.358;2022-08-30T01:30:36;100048.88;;;21.72;100.00
74524;BME280;63074;44.696;10.358;2022-08-30T01:33:08;100052.28;;;21.78;100.00
74524;BME280;63074;44.696;10.358;2022-08-30T01:36:05;100047.94;;;21.77;100.00
74524;BME280;63074;44.696;10.358;2022-08-30T01:38:37;100047.25;;;21.71;100.00
74524;BME280;63074;44.696;10.358;2022-08-30T01:46:03;100037.22;;;22.03;100.00
74524;BME280;63074;44.696;10.358;2022-08-30T01:48:28;100046.56;;;22.02;100.00
74524;BME280;63074;44.696;10.358;2022-08-30T01:50:54;100044.66;;;21.88;100.00
74524;BME280;63074;44.696;10.358;2022-08-30T01:53:19;100043.41;;;21.72;100.00
74524;BME280;63074;44.696;10.358;2022-08-30T01:55:45;100048.75;;;21.77;100.00
74524;BME280;63074;44.696;10.358;2022-08-30T01:58:11;100038.69;;;21.64;100.00
74524;BME280;63074;44.696;10.358;2022-08-30T02:00:37;100027.56;;;21.61;100.00
74524;BME280;63074;44.696;10.358;2022-08-30T02:03:03;100025.75;;;21.56;100.00
74524;BME280;63074;44.696;10.358;2022-08-30T02:05:29;100026.50;;;21.70;100.00
74524;BME280;63074;44.696;10.358;2022-08-30T02:07:54;100021.41;;;21.77;100.00
74524;BME280;63074;44.696;10.358;2022-08-30T02:10:20;100032.41;;;21.86;100.00
74524;BME280;63074;44.696;10.358;2022-08-30T02:12:45;100026.38;;;21.98;100.00
74524;BME280;63074;44.696;10.358;2022-08-30T02:15:12;100030.88;;;21.94;100.00
74524;BME280;63074;44.696;10.358;2022-08-30T02:17:38;100039.81;;;21.85;100.00
74524;BME280;63074;44.696;10.358;2022-08-30T02:20:05;100039.19;;;21.88;100.00
74524;BME280;63074;44.696;10.358;2022-08-30T02:22:31;100038.31;;;21.79;100.00
74524;BME280;63074;44.696;10.358;2022-08-30T02:24:56;100033.03;;;21.83;100.00
74524;BME280;63074;44.696;10.358;2022-08-30T02:27:22;100039.75;;;21.77;100.00
74524;BME280;63074;44.696;10.358;2022-08-30T02:29:47;100038.44;;;21.74;100.00
74524;BME280;63074;44.696;10.358;2022-08-30T02:32:13;100036.09;;;21.81;100.00
74524;BME280;63074;44.696;10.358;2022-08-30T02:34:38;100037.22;;;21.67;100.00
74524;BME280;63074;44.696;10.358;2022-08-30T02:37:04;100033.53;;;21.63;100.00
74524;BME280;63074;44.696;10.358;2022-08-30T02:39:30;100035.38;;;21.76;99.20
74524;BME280;63074;44.696;10.358;2022-08-30T02:41:56;100033.38;;;21.68;99.21
74524;BME280;63074;44.696;10.358;2022-08-30T02:44:21;100039.84;;;21.72;98.28
74524;BME280;63074;44.696;10.358;2022-08-30T02:46:46;100043.81;;;21.66;98.34
74524;BME280;63074;44.696;10.358;2022-08-30T02:49:12;100050.50;;;21.73;99.03
74524;BME280;63074;44.696;10.358;2022-08-30T02:51:38;100058.94;;;21.63;100.00
74524;BME280;63074;44.696;10.358;2022-08-30T02:54:05;100058.81;;;21.68;99.82
74524;BME280;63074;44.696;10.358;2022-08-30T02:56:32;100049.38;;;21.74;99.24
74524;BME280;63074;44.696;10.358;2022-08-30T02:58:58;100061.25;;;21.34;100.00
74524;BME280;63074;44.696;10.358;2022-08-30T03:01:23;100052.63;;;20.99;100.00
74524;BME280;63074;44.696;10.358;2022-08-30T03:03:49;100052.75;;;21.35;100.00
74524;BME280;63074;44.696;10.358;2022-08-30T03:06:15;100059.53;;;21.24;100.00
74524;BME280;63074;44.696;10.358;2022-08-30T03:08:41;100053.72;;;21.12;100.00
74524;BME280;63074;44.696;10.358;2022-08-30T03:11:07;100059.31;;;21.07;100.00
74524;BME280;63074;44.696;10.358;2022-08-30T03:13:32;100060.50;;;20.60;100.00
74524;BME280;63074;44.696;10.358;2022-08-30T03:15:58;100051.91;;;20.80;100.00
74524;BME280;63074;44.696;10.358;2022-08-30T03:18:23;100051.31;;;20.83;100.00
74524;BME280;63074;44.696;10.358;2022-08-30T03:20:49;100048.78;;;20.86;100.00
74524;BME280;63074;44.696;10.358;2022-08-30T03:23:16;100045.06;;;20.96;100.00
74524;BME280;63074;44.696;10.358;2022-08-30T03:25:42;100047.19;;;20.99;100.00
74524;BME280;63074;44.696;10.358;2022-08-30T03:28:07;100043.63;;;20.99;100.00
74524;BME280;63074;44.696;10.358;2022-08-30T03:30:33;100049.31;;;21.02;100.00
74524;BME280;63074;44.696;10.358;2022-08-30T03:33:00;100059.13;;;21.03;100.00
74524;BME280;63074;44.696;10.358;2022-08-30T03:35:25;100072.78;;;21.03;100.00
74524;BME280;63074;44.696;10.358;2022-08-30T03:37:51;100080.84;;;21.08;100.00
74524;BME280;63074;44.696;10.358;2022-08-30T03:40:18;100086.72;;;21.15;100.00
74524;BME280;63074;44.696;10.358;2022-08-30T03:42:44;100089.59;;;21.24;100.00
74524;BME280;63074;44.696;10.358;2022-08-30T03:45:11;100088.75;;;21.10;100.00
74524;BME280;63074;44.696;10.358;2022-08-30T03:47:37;100086.81;;;21.10;100.00
74524;BME280;63074;44.696;10.358;2022-08-30T03:50:04;100089.97;;;21.17;100.00
74524;BME280;63074;44.696;10.358;2022-08-30T03:52:30;100090.19;;;21.07;100.00
74524;BME280;63074;44.696;10.358;2022-08-30T03:54:55;100091.16;;;21.11;100.00
74524;BME280;63074;44.696;10.358;2022-08-30T03:57:21;100089.44;;;21.15;100.00
74524;BME280;63074;44.696;10.358;2022-08-30T03:59:46;100093.84;;;21.30;100.00
74524;BME280;63074;44.696;10.358;2022-08-30T04:02:12;100086.13;;;21.18;100.00
74524;BME280;63074;44.696;10.358;2022-08-30T04:04:37;100084.59;;;21.12;100.00
74524;BME280;63074;44.696;10.358;2022-08-30T04:07:03;100086.97;;;21.33;100.00
74524;BME280;63074;44.696;10.358;2022-08-30T04:09:28;100092.78;;;21.40;100.00
74524;BME280;63074;44.696;10.358;2022-08-30T04:11:54;100095.53;;;21.12;100.00
74524;BME280;63074;44.696;10.358;2022-08-30T04:14:19;100097.56;;;21.20;100.00
74524;BME280;63074;44.696;10.358;2022-08-30T04:16:46;100099.78;;;21.05;100.00
74524;BME280;63074;44.696;10.358;2022-08-30T04:19:11;100099.88;;;20.86;100.00
74524;BME280;63074;44.696;10.358;2022-08-30T04:21:37;100104.75;;;21.03;100.00
74524;BME280;63074;44.696;10.358;2022-08-30T04:24:02;100103.72;;;20.99;100.00
74524;BME280;63074;44.696;10.358;2022-08-30T04:26:28;100112.50;;;20.82;100.00
74524;BME280;63074;44.696;10.358;2022-08-30T04:28:54;100115.88;;;20.93;100.00
74524;BME280;63074;44.696;10.358;2022-08-30T04:31:20;100127.47;;;20.84;100.00
74524;BME280;63074;44.696;10.358;2022-08-30T04:33:46;100125.78;;;20.88;100.00
74524;BME280;63074;44.696;10.358;2022-08-30T04:36:12;100135.69;;;20.98;100.00
74524;BME280;63074;44.696;10.358;2022-08-30T04:38:39;100137.50;;;20.89;100.00
74524;BME280;63074;44.696;10.358;2022-08-30T04:41:13;100133.66;;;20.90;100.00
74524;BME280;63074;44.696;10.358;2022-08-30T04:43:43;100136.59;;;20.94;100.00
74524;BME280;63074;44.696;10.358;2022-08-30T04:46:09;100142.53;;;20.82;100.00
74524;BME280;63074;44.696;10.358;2022-08-30T04:48:36;100143.34;;;20.69;100.00
74524;BME280;63074;44.696;10.358;2022-08-30T04:51:04;100151.47;;;20.55;100.00
74524;BME280;63074;44.696;10.358;2022-08-30T04:53:30;100158.53;;;20.42;100.00
74524;BME280;63074;44.696;10.358;2022-08-30T04:55:56;100166.94;;;20.46;100.00
74524;BME280;63074;44.696;10.358;2022-08-30T04:58:22;100163.06;;;20.66;100.00
74524;BME280;63074;44.696;10.358;2022-08-30T05:00:47;100166.16;;;20.59;100.00
74524;BME280;63074;44.696;10.358;2022-08-30T05:03:13;100179.66;;;20.83;100.00
74524;BME280;63074;44.696;10.358;2022-08-30T05:05:40;100182.81;;;20.90;100.00
74524;BME280;63074;44.696;10.358;2022-08-30T05:08:13;100183.47;;;21.01;100.00
74524;BME280;63074;44.696;10.358;2022-08-30T05:10:43;100184.03;;;20.84;100.00
74524;BME280;63074;44.696;10.358;2022-08-30T05:13:10;100191.69;;;20.68;100.00
74524;BME280;63074;44.696;10.358;2022-08-30T05:15:36;100195.06;;;20.93;100.00
74524;BME280;63074;44.696;10.358;2022-08-30T05:18:02;100192.78;;;21.00;100.00
74524;BME280;63074;44.696;10.358;2022-08-30T05:20:28;100197.03;;;21.06;100.00
74524;BME280;63074;44.696;10.358;2022-08-30T05:22:54;100195.75;;;21.44;100.00
74524;BME280;63074;44.696;10.358;2022-08-30T05:25:21;100193.03;;;21.44;100.00
74524;BME280;63074;44.696;10.358;2022-08-30T05:27:47;100201.44;;;21.34;100.00
74524;BME280;63074;44.696;10.358;2022-08-30T05:30:14;100197.38;;;21.32;100.00
74524;BME280;63074;44.696;10.358;2022-08-30T05:32:40;100195.84;;;21.39;100.00
74524;BME280;63074;44.696;10.358;2022-08-30T05:35:07;100193.13;;;21.26;100.00
74524;BME280;63074;44.696;10.358;2022-08-30T05:37:33;100196.78;;;21.35;100.00
74524;BME280;63074;44.696;10.358;2022-08-30T05:39:58;100189.88;;;21.37;100.00
74524;BME280;63074;44.696;10.358;2022-08-30T05:42:24;100191.09;;;21.72;100.00
74524;BME280;63074;44.696;10.358;2022-08-30T05:47:16;100196.03;;;21.70;100.00
74524;BME280;63074;44.696;10.358;2022-08-30T05:49:41;100193.81;;;21.86;100.00
74524;BME280;63074;44.696;10.358;2022-08-30T05:52:07;100192.16;;;21.99;100.00
74524;BME280;63074;44.696;10.358;2022-08-30T05:54:32;100186.91;;;22.02;100.00
74524;BME280;63074;44.696;10.358;2022-08-30T05:56:58;100182.75;;;22.05;100.00
74524;BME280;63074;44.696;10.358;2022-08-30T05:59:23;100182.94;;;22.08;99.06
74524;BME280;63074;44.696;10.358;2022-08-30T06:01:49;100181.25;;;21.85;99.53
74524;BME280;63074;44.696;10.358;2022-08-30T06:04:15;100178.66;;;22.16;100.00
74524;BME280;63074;44.696;10.358;2022-08-30T06:06:44;100175.00;;;22.20;100.00
74524;BME280;63074;44.696;10.358;2022-08-30T06:09:13;100173.44;;;22.28;98.88
74524;BME280;63074;44.696;10.358;2022-08-30T06:11:59;100163.69;;;22.36;98.00
74524;BME280;63074;44.696;10.358;2022-08-30T06:14:33;100169.88;;;22.28;97.39
74524;BME280;63074;44.696;10.358;2022-08-30T06:17:06;100164.06;;;22.43;97.66
74524;BME280;63074;44.696;10.358;2022-08-30T06:19:55;100171.56;;;22.60;97.22
74524;BME280;63074;44.696;10.358;2022-08-30T06:22:28;100182.16;;;22.75;97.53
74524;BME280;63074;44.696;10.358;2022-08-30T06:24:54;100170.50;;;22.92;96.01
74524;BME280;63074;44.696;10.358;2022-08-30T06:27:20;100169.47;;;23.10;94.69
74524;BME280;63074;44.696;10.358;2022-08-30T06:29:50;100168.91;;;23.30;93.80
74524;BME280;63074;44.696;10.358;2022-08-30T06:32:16;100155.03;;;23.27;94.98
74524;BME280;63074;44.696;10.358;2022-08-30T06:34:46;100157.75;;;22.65;96.28
74524;BME280;63074;44.696;10.358;2022-08-30T06:37:15;100154.25;;;22.73;98.28
74524;BME280;63074;44.696;10.358;2022-08-30T06:39:40;100148.22;;;22.84;98.54
74524;BME280;63074;44.696;10.358;2022-08-30T06:42:06;100153.06;;;23.18;97.13
74524;BME280;63074;44.696;10.358;2022-08-30T06:44:31;100149.03;;;23.64;94.26
74524;BME280;63074;44.696;10.358;2022-08-30T06:46:57;100153.25;;;23.87;92.10
74524;BME280;63074;44.696;10.358;2022-08-30T06:49:23;100147.44;;;23.98;91.78
74524;BME280;63074;44.696;10.358;2022-08-30T06:51:48;100150.03;;;24.11;91.12
74524;BME280;63074;44.696;10.358;2022-08-30T06:54:13;100146.19;;;24.30;93.54
74524;BME280;63074;44.696;10.358;2022-08-30T06:56:40;100148.94;;;24.30;93.85
74524;BME280;63074;44.696;10.358;2022-08-30T06:59:06;100154.59;;;24.33;93.17
74524;BME280;63074;44.696;10.358;2022-08-30T07:01:31;100157.34;;;24.25;93.17
74524;BME280;63074;44.696;10.358;2022-08-30T07:03:57;100157.50;;;24.37;98.41
74524;BME280;63074;44.696;10.358;2022-08-30T07:06:24;100152.75;;;24.54;95.60
74524;BME280;63074;44.696;10.358;2022-08-30T07:08:50;100153.56;;;24.72;93.81
74524;BME280;63074;44.696;10.358;2022-08-30T07:11:30;100161.16;;;24.75;95.36
74524;BME280;63074;44.696;10.358;2022-08-30T07:13:56;100165.84;;;24.66;95.19
74524;BME280;63074;44.696;10.358;2022-08-30T07:16:22;100165.34;;;24.73;96.43
74524;BME280;63074;44.696;10.358;2022-08-30T07:18:47;100161.97;;;24.67;100.00
74524;BME280;63074;44.696;10.358;2022-08-30T07:21:24;100161.00;;;24.63;100.00
74524;BME280;63074;44.696;10.358;2022-08-30T07:23:50;100166.31;;;24.77;96.03
74524;BME280;63074;44.696;10.358;2022-08-30T07:26:20;100164.66;;;24.84;94.63
74524;BME280;63074;44.696;10.358;2022-08-30T07:28:46;100164.06;;;24.79;96.39
74524;BME280;63074;44.696;10.358;2022-08-30T07:31:13;100159.22;;;24.76;96.16
74524;BME280;63074;44.696;10.358;2022-08-30T07:33:39;100161.63;;;24.77;96.41
74524;BME280;63074;44.696;10.358;2022-08-30T07:36:06;100158.75;;;24.65;99.42
74524;BME280;63074;44.696;10.358;2022-08-30T07:38:31;100158.56;;;24.79;100.00
74524;BME280;63074;44.696;10.358;2022-08-30T07:40:57;100150.09;;;24.92;96.27
74524;BME280;63074;44.696;10.358;2022-08-30T07:43:29;100147.03;;;24.94;99.91
74524;BME280;63074;44.696;10.358;2022-08-30T07:45:56;100152.91;;;24.75;99.57
74524;BME280;63074;44.696;10.358;2022-08-30T07:48:24;100158.50;;;25.05;98.13
74524;BME280;63074;44.696;10.358;2022-08-30T07:50:49;100150.94;;;25.31;93.94
74524;BME280;63074;44.696;10.358;2022-08-30T07:53:15;100155.72;;;25.43;92.86
74524;BME280;63074;44.696;10.358;2022-08-30T07:55:40;100162.59;;;25.28;92.18
74524;BME280;63074;44.696;10.358;2022-08-30T07:58:05;100160.22;;;25.47;91.42
74524;BME280;63074;44.696;10.358;2022-08-30T08:00:31;100168.59;;;25.60;89.89
74524;BME280;63074;44.696;10.358;2022-08-30T08:02:56;100167.78;;;25.88;88.24
74524;BME280;63074;44.696;10.358;2022-08-30T08:05:22;100168.13;;;25.87;87.62
74524;BME280;63074;44.696;10.358;2022-08-30T08:07:47;100173.88;;;25.73;90.12
74524;BME280;63074;44.696;10.358;2022-08-30T08:10:13;100166.75;;;25.72;88.92
74524;BME280;63074;44.696;10.358;2022-08-30T08:12:39;100175.28;;;25.79;88.83
74524;BME280;63074;44.696;10.358;2022-08-30T08:15:05;100169.72;;;25.88;88.65
74524;BME280;63074;44.696;10.358;2022-08-30T08:17:31;100172.56;;;26.42;84.62
74524;BME280;63074;44.696;10.358;2022-08-30T08:19:57;100167.06;;;26.42;85.50
74524;BME280;63074;44.696;10.358;2022-08-30T08:22:23;100158.59;;;26.59;84.04
74524;BME280;63074;44.696;10.358;2022-08-30T08:24:49;100160.41;;;26.22;86.70
74524;BME280;63074;44.696;10.358;2022-08-30T08:27:15;100161.69;;;26.24;85.66
74524;BME280;63074;44.696;10.358;2022-08-30T08:29:40;100157.78;;;26.46;85.69
74524;BME280;63074;44.696;10.358;2022-08-30T08:32:06;100160.56;;;26.58;84.23
74524;BME280;63074;44.696;10.358;2022-08-30T08:34:31;100158.41;;;26.64;83.57
74524;BME280;63074;44.696;10.358;2022-08-30T08:36:57;100164.22;;;26.83;81.79
74524;BME280;63074;44.696;10.358;2022-08-30T08:39:22;100163.41;;;26.83;84.15
74524;BME280;63074;44.696;10.358;2022-08-30T08:47:43;100158.84;;;26.99;82.34
74524;BME280;63074;44.696;10.358;2022-08-30T08:50:16;100158.84;;;26.33;86.98
74524;BME280;63074;44.696;10.358;2022-08-30T08:56:00;100162.56;;;26.70;82.34
74524;BME280;63074;44.696;10.358;2022-08-30T08:58:40;100152.44;;;27.07;79.04
74524;BME280;63074;44.696;10.358;2022-08-30T09:01:08;100158.44;;;26.43;83.52
74524;BME280;63074;44.696;10.358;2022-08-30T09:03:34;100152.47;;;26.74;81.74
74524;BME280;63074;44.696;10.358;2022-08-30T09:06:03;100154.47;;;26.98;81.53
74524;BME280;63074;44.696;10.358;2022-08-30T09:08:30;100147.72;;;27.08;81.83
74524;BME280;63074;44.696;10.358;2022-08-30T09:11:05;100143.94;;;27.24;81.85
74524;BME280;63074;44.696;10.358;2022-08-30T09:13:35;100146.94;;;26.74;83.54
74524;BME280;63074;44.696;10.358;2022-08-30T09:16:00;100148.81;;;26.95;82.53
74524;BME280;63074;44.696;10.358;2022-08-30T09:18:42;100155.19;;;27.07;81.38
74524;BME280;63074;44.696;10.358;2022-08-30T09:21:08;100150.00;;;27.18;82.25
74524;BME280;63074;44.696;10.358;2022-08-30T09:23:34;100156.94;;;27.36;79.84
74524;BME280;63074;44.696;10.358;2022-08-30T09:26:07;100149.34;;;27.70;80.83
74524;BME280;63074;44.696;10.358;2022-08-30T09:28:50;100146.69;;;27.24;81.90
74524;BME280;63074;44.696;10.358;2022-08-30T09:31:24;100147.38;;;27.34;82.15
74524;BME280;63074;44.696;10.358;2022-08-30T09:34:01;100160.25;;;27.54;78.98
74524;BME280;63074;44.696;10.358;2022-08-30T09:36:49;100142.78;;;27.38;82.95
74524;BME280;63074;44.696;10.358;2022-08-30T09:41:45;100156.88;;;27.97;78.12
74524;BME280;63074;44.696;10.358;2022-08-30T09:46:51;100154.59;;;27.87;78.26
74524;BME280;63074;44.696;10.358;2022-08-30T09:49:40;100157.72;;;27.85;78.11
74524;BME280;63074;44.696;10.358;2022-08-30T09:55:07;100161.97;;;28.79;73.01
74524;BME280;63074;44.696;10.358;2022-08-30T10:00:22;100154.16;;;28.81;72.03
74524;BME280;63074;44.696;10.358;2022-08-30T10:03:01;100158.06;;;28.80;72.52
74524;BME280;63074;44.696;10.358;2022-08-30T10:08:43;100149.47;;;28.26;75.39
74524;BME280;63074;44.696;10.358;2022-08-30T10:16:31;100149.13;;;28.03;74.96
74524;BME280;63074;44.696;10.358;2022-08-30T10:24:30;100148.44;;;29.37;67.77
74524;BME280;63074;44.696;10.358;2022-08-30T10:27:20;100146.53;;;28.78;72.06
74524;BME280;63074;44.696;10.358;2022-08-30T10:30:02;100149.34;;;29.09;69.87
74524;BME280;63074;44.696;10.358;2022-08-30T10:35:20;100143.34;;;28.92;70.39
74524;BME280;63074;44.696;10.358;2022-08-30T10:38:00;100139.91;;;29.42;69.71
74524;BME280;63074;44.696;10.358;2022-08-30T10:40:31;100145.97;;;29.16;70.87
74524;BME280;63074;44.696;10.358;2022-08-30T10:46:47;100139.53;;;28.96;70.34
74524;BME280;63074;44.696;10.358;2022-08-30T10:49:25;100145.69;;;29.37;67.46
74524;BME280;63074;44.696;10.358;2022-08-30T10:55:10;100140.75;;;29.46;66.80
74524;BME280;63074;44.696;10.358;2022-08-30T10:57:39;100139.41;;;29.90;65.36
74524;BME280;63074;44.696;10.358;2022-08-30T11:00:11;100134.25;;;30.08;64.88
74524;BME280;63074;44.696;10.358;2022-08-30T11:06:16;100127.78;;;30.01;70.30
74524;BME280;63074;44.696;10.358;2022-08-30T11:11:53;100127.06;;;30.23;67.00
74524;BME280;63074;44.696;10.358;2022-08-30T11:14:24;100122.44;;;30.11;65.93
74524;BME280;63074;44.696;10.358;2022-08-30T11:16:53;100127.97;;;29.92;65.94
74524;BME280;63074;44.696;10.358;2022-08-30T11:19:42;100115.31;;;30.10;65.22
74524;BME280;63074;44.696;10.358;2022-08-30T11:22:28;100117.41;;;29.98;72.09
74524;BME280;63074;44.696;10.358;2022-08-30T11:33:54;100103.81;;;30.50;65.02
74524;BME280;63074;44.696;10.358;2022-08-30T11:42:09;100088.56;;;31.59;60.08
74524;BME280;63074;44.696;10.358;2022-08-30T11:44:39;100088.25;;;31.64;61.42
74524;BME280;63074;44.696;10.358;2022-08-30T11:47:41;100087.50;;;32.27;57.09
74524;BME280;63074;44.696;10.358;2022-08-30T11:53:24;100093.38;;;33.54;51.16
74524;BME280;63074;44.696;10.358;2022-08-30T11:58:56;100088.75;;;33.21;52.84
74524;BME280;63074;44.696;10.358;2022-08-30T12:01:48;100088.25;;;32.24;54.38
74524;BME280;63074;44.696;10.358;2022-08-30T12:05:05;100086.63;;;31.10;58.03
74524;BME280;63074;44.696;10.358;2022-08-30T12:08:03;100075.50;;;31.33;56.09
74524;BME280;63074;44.696;10.358;2022-08-30T12:10:44;100066.19;;;32.41;53.42
74524;BME280;63074;44.696;10.358;2022-08-30T12:18:58;100058.66;;;33.37;51.29
74524;BME280;63074;44.696;10.358;2022-08-30T12:21:37;100050.25;;;34.06;49.20
74524;BME280;63074;44.696;10.358;2022-08-30T12:24:34;100056.56;;;33.93;49.30
74524;BME280;63074;44.696;10.358;2022-08-30T12:27:32;100062.28;;;34.32;48.12
74524;BME280;63074;44.696;10.358;2022-08-30T12:30:02;100073.13;;;34.83;46.49
74524;BME280;63074;44.696;10.358;2022-08-30T12:32:33;100059.53;;;33.48;49.53
74524;BME280;63074;44.696;10.358;2022-08-30T12:35:05;100058.84;;;33.07;50.79
74524;BME280;63074;44.696;10.358;2022-08-30T12:37:55;100057.41;;;32.39;54.46
74524;BME280;63074;44.696;10.358;2022-08-30T12:40:28;100052.66;;;32.06;55.10
74524;BME280;63074;44.696;10.358;2022-08-30T12:43:02;100043.94;;;31.71;55.33
74524;BME280;63074;44.696;10.358;2022-08-30T12:45:41;100037.63;;;30.95;56.02
74524;BME280;63074;44.696;10.358;2022-08-30T12:48:26;100032.56;;;31.00;59.22
74524;BME280;63074;44.696;10.358;2022-08-30T12:50:57;100031.88;;;30.80;60.75
74524;BME280;63074;44.696;10.358;2022-08-30T12:53:39;100035.38;;;30.54;59.77
74524;BME280;63074;44.696;10.358;2022-08-30T12:56:14;100042.38;;;30.48;61.30
74524;BME280;63074;44.696;10.358;2022-08-30T12:59:09;100053.34;;;30.41;60.58
74524;BME280;63074;44.696;10.358;2022-08-30T13:01:36;100060.78;;;30.57;60.73
74524;BME280;63074;44.696;10.358;2022-08-30T13:04:24;100077.13;;;30.42;62.05
74524;BME280;63074;44.696;10.358;2022-08-30T13:10:12;100071.44;;;29.77;65.62
74524;BME280;63074;44.696;10.358;2022-08-30T13:12:38;100051.28;;;28.91;69.35
74524;BME280;63074;44.696;10.358;2022-08-30T13:15:27;100035.13;;;28.93;70.43
74524;BME280;63074;44.696;10.358;2022-08-30T13:18:23;100042.78;;;29.15;67.69
74524;BME280;63074;44.696;10.358;2022-08-30T13:21:29;100033.16;;;28.78;70.89
74524;BME280;63074;44.696;10.358;2022-08-30T13:24:13;100023.78;;;28.67;70.57
74524;BME280;63074;44.696;10.358;2022-08-30T13:26:47;100031.16;;;28.31;73.66
74524;BME280;63074;44.696;10.358;2022-08-30T13:29:19;100014.78;;;28.22;74.29
74524;BME280;63074;44.696;10.358;2022-08-30T13:32:10;99995.91;;;28.12;77.32
74524;BME280;63074;44.696;10.358;2022-08-30T13:34:38;99989.78;;;28.19;78.10
74524;BME280;63074;44.696;10.358;2022-08-30T13:37:07;99996.00;;;28.28;78.45
74524;BME280;63074;44.696;10.358;2022-08-30T13:39:36;100029.91;;;27.73;83.99
74524;BME280;63074;44.696;10.358;2022-08-30T13:42:21;100045.03;;;27.63;83.27
74524;BME280;63074;44.696;10.358;2022-08-30T13:44:49;100058.44;;;27.77;86.79
74524;BME280;63074;44.696;10.358;2022-08-30T13:47:17;100057.00;;;27.67;90.75
74524;BME280;63074;44.696;10.358;2022-08-30T13:49:43;100051.84;;;27.41;95.33
74524;BME280;63074;44.696;10.358;2022-08-30T13:52:15;100060.47;;;27.28;100.00
74524;BME280;63074;44.696;10.358;2022-08-30T13:54:40;100052.81;;;27.09;100.00
74524;BME280;63074;44.696;10.358;2022-08-30T13:57:05;100068.03;;;26.70;100.00
74524;BME280;63074;44.696;10.358;2022-08-30T13:59:31;100088.59;;;26.06;100.00
74524;BME280;63074;44.696;10.358;2022-08-30T14:01:58;100098.06;;;24.96;100.00
74524;BME280;63074;44.696;10.358;2022-08-30T14:04:24;100097.25;;;24.06;100.00
74524;BME280;63074;44.696;10.358;2022-08-30T14:06:49;100106.78;;;23.91;100.00
74524;BME280;63074;44.696;10.358;2022-08-30T14:09:15;100099.50;;;23.12;100.00
74524;BME280;63074;44.696;10.358;2022-08-30T14:11:40;100085.88;;;22.90;100.00
74524;BME280;63074;44.696;10.358;2022-08-30T14:14:06;100101.91;;;22.21;100.00
74524;BME280;63074;44.696;10.358;2022-08-30T14:16:32;100127.75;;;21.79;100.00